Météo Nord-Pas-de-Calais   La météo au plus près de chez vous

Station météorologique

Observations météo à Quimper (29216)

29216001 82 m Dernier relevé à 18:36
21.9°C
Humidité 81 % Vent 19.4 km/h 1020.6 hPa

Journée consultée

Vendredi 4 Septembre 2026

Synthèse de la journée

Périodes de référence en UTC

Température maximale

23.7°C

à 13:36

06h 06h

Température minimale

18.6°C

à 04:54

18h 18h

Rafale maximale

39 km/h

à 13:24

00h 00h

Précipitations

0.4 mm

Cumul quotidien

06h 06h

Ensoleillement

2h 53 mins

Durée quotidienne

00h 00h

Graphiques de la journée

Heure locale Réduire

Données détaillées

Relevés météo

Pas de 6 minutes Afficher les relevés infra-horaires
Relevés météo détaillés à Quimper pour le Vendredi 4 Septembre 2026
Heure Température °C Point de rosée °C Humidité % Vent moyen (raf.), km/h Précipitations mm Température à 10 cm °C Température à 20 cm °C Température à 50 cm °C Visibilité m État du sol   Ensoleillement min Rayonnement global W/m² Pression hPa Nébulosité Octas
18:36 21.9 °C 17.3 °C 75 % 22 km/h (32 km/h) 0 mm0 mm 21.4 °C 20.4 °C 19.4 °C 60000 m 0   5 min 98.5 W/m² 1020.8 hPa
18:30 22.3 °C 17.2 °C 73 % 19 km/h (32 km/h) 0 mm0 mm 21.4 °C 20.4 °C 19.4 °C 60000 m 0   6 min 157.6 W/m² 1020.8 hPa
18:24 22.4 °C 17.5 °C 74 % 18 km/h (24 km/h) 0 mm0 mm 21.4 °C 20.4 °C 19.4 °C 60000 m 0   6 min 161.7 W/m² 1020.8 hPa
18:18 22.4 °C 17.5 °C 74 % 18 km/h (26 km/h) 0 mm0 mm 21.4 °C 20.4 °C 19.4 °C 60000 m 0   6 min 142 W/m² 1020.7 hPa
18:12 21.9 °C 17.5 °C 76 % 18 km/h (26 km/h) 0 mm0 mm 21.3 °C 20.5 °C 19.4 °C 60000 m 0   5 min 139.9 W/m² 1020.7 hPa
18:06 22.4 °C 17.7 °C 75 % 18 km/h (27 km/h) 0 mm0 mm 21.3 °C 20.4 °C 19.4 °C 60000 m 0   6 min 180.5 W/m² 1020.7 hPa
18:00 22.2 °C 18.4 °C 79 % 21 km/h (30 km/h) 0 mm0 mm 21.3 °C 20.4 °C 19.4 °C 60000 m 0   4 min 128 W/m² 1020.6 hPa 7 Octas
17:54 21.6 °C 17.8 °C 79 % 20 km/h (30 km/h) 0 mm0 mm 21.3 °C 20.4 °C 19.4 °C 60000 m 0   4 min 131 W/m² 1020.6 hPa
17:48 21.8 °C 17.8 °C 78 % 18 km/h (24 km/h) 0 mm0 mm 21.3 °C 20.4 °C 19.4 °C 60000 m 0   4 min 120.2 W/m² 1020.6 hPa
17:42 22 °C 18.2 °C 79 % 19 km/h (29 km/h) 0 mm0 mm 21.3 °C 20.4 °C 19.4 °C 60000 m 0   4 min 122.9 W/m² 1020.6 hPa
17:36 21.9 °C 18.5 °C 81 % 19 km/h (29 km/h) 0 mm0 mm 21.2 °C 20.4 °C 19.3 °C 60000 m 0   3 min 125 W/m² 1020.6 hPa
17:30 21.4 °C 18 °C 81 % 17 km/h (29 km/h) 0 mm0 mm 21.2 °C 20.3 °C 19.4 °C 60000 m 0   1 min 114.4 W/m² 1020.7 hPa
17:24 21.4 °C 18.2 °C 82 % 20 km/h (30 km/h) 0 mm0 mm 21.2 °C 20.3 °C 19.4 °C 60000 m 0   0 min 96.2 W/m² 1020.7 hPa
17:18 21.9 °C 18.5 °C 81 % 19 km/h (27 km/h) 0 mm0 mm 21.2 °C 20.3 °C 19.4 °C 60000 m 0   1 min 117.1 W/m² 1020.7 hPa
17:12 22.1 °C 18.7 °C 81 % 18 km/h (27 km/h) 0 mm0 mm 21.2 °C 20.3 °C 19.4 °C 60000 m 0   3 min 132.4 W/m² 1020.6 hPa
17:06 21.9 °C 18.9 °C 83 % 19 km/h (28 km/h) 0 mm0 mm 21.2 °C 20.3 °C 19.4 °C 60000 m 0   3 min 161.1 W/m² 1020.6 hPa
17:00 21.7 °C 18.9 °C 84 % 18 km/h (25 km/h) 0 mm0.2 mm 21.2 °C 20.3 °C 19.3 °C 60000 m 0   2 min 128.1 W/m² 1020.6 hPa 8 Octas
16:54 21.4 °C 19.1 °C 87 % 18 km/h (25 km/h) 0 mm0 mm 21.1 °C 20.3 °C 19.4 °C 60000 m 0   1 min 109.4 W/m² 1020.6 hPa
16:48 21.7 °C 19.3 °C 86 % 18 km/h (27 km/h) 0 mm0 mm 21.1 °C 20.3 °C 19.4 °C 60000 m 0   3 min 161.5 W/m² 1020.6 hPa
16:42 21.2 °C 19.3 °C 89 % 18 km/h (27 km/h) 0 mm0 mm 21.1 °C 20.2 °C 19.4 °C 60000 m 0   1 min 80.3 W/m² 1020.6 hPa
16:36 21.5 °C 19.8 °C 90 % 16 km/h (24 km/h) 0 mm0 mm 21 °C 20.2 °C 19.4 °C 60000 m 0   1 min 109.1 W/m² 1020.6 hPa
16:30 21.5 °C 20 °C 91 % 17 km/h (26 km/h) 0 mm0 mm 21.1 °C 20.2 °C 19.3 °C 60000 m 0   6 min 224.3 W/m² 1020.6 hPa
16:24 21 °C 20 °C 94 % 17 km/h (26 km/h) 0 mm0 mm 21 °C 20.2 °C 19.3 °C 18680 m 0   2 min 142.8 W/m² 1020.6 hPa
16:18 20.8 °C 19.8 °C 94 % 17 km/h (24 km/h) 0.2 mm0 mm 21 °C 20.2 °C 19.3 °C 14030 m 1   3 min 178.7 W/m² 1020.5 hPa
16:12 21 °C 20.5 °C 97 % 17 km/h (30 km/h) 0 mm0 mm 21 °C 20.2 °C 19.4 °C 7950 m 1   4 min 208.8 W/m² 1020.6 hPa
16:06 20.5 °C 19.8 °C 96 % 19 km/h (31 km/h) 0 mm0 mm 21 °C 20.2 °C 19.3 °C 3830 m 2   0 min 112.8 W/m² 1020.6 hPa
16:00 20.5 °C 19.8 °C 96 % 19 km/h (31 km/h) 0 mm0 mm 20.9 °C 20.2 °C 19.4 °C 3020 m 2   0 min 89.4 W/m² 1020.7 hPa 8 Octas
15:54 20.5 °C 19.8 °C 96 % 22 km/h (32 km/h) 0 mm0 mm 20.9 °C 20.2 °C 19.4 °C 2220 m 2   0 min 85.2 W/m² 1020.7 hPa
15:48 20.5 °C 19.5 °C 94 % 19 km/h (32 km/h) 0 mm0 mm 20.9 °C 20.2 °C 19.4 °C 2180 m 1   0 min 58 W/m² 1020.8 hPa
15:42 20.7 °C 19.4 °C 92 % 17 km/h (28 km/h) 0 mm0 mm 20.9 °C 20.1 °C 19.4 °C 2990 m 1   0 min 65.5 W/m² 1020.7 hPa
15:36 21 °C 19.5 °C 91 % 19 km/h (28 km/h) 0 mm0 mm 20.9 °C 20.1 °C 19.4 °C 4710 m 1   0 min 83.3 W/m² 1020.7 hPa
15:30 21.3 °C 19.4 °C 89 % 19 km/h (27 km/h) 0 mm0 mm 20.9 °C 20.1 °C 19.4 °C 9600 m 0   0 min 106.8 W/m² 1020.6 hPa
15:24 21 °C 19.3 °C 90 % 20 km/h (33 km/h) 0 mm0 mm 20.8 °C 20.1 °C 19.4 °C 9580 m 0   0 min 91.8 W/m² 1020.7 hPa
15:18 21.1 °C 19.2 °C 89 % 18 km/h (33 km/h) 0 mm0 mm 20.8 °C 20.1 °C 19.3 °C 13780 m 0   0 min 103.1 W/m² 1020.7 hPa
15:12 21.1 °C 19.2 °C 89 % 18 km/h (31 km/h) 0 mm0 mm 20.8 °C 20.1 °C 19.4 °C 9390 m 0   0 min 96.5 W/m² 1020.8 hPa
15:06 21.2 °C 18.9 °C 87 % 20 km/h (32 km/h) 0 mm0 mm 20.7 °C 20.1 °C 19.4 °C 11810 m 0   0 min 74.3 W/m² 1020.8 hPa
15:00 21.4 °C 19 °C 86 % 20 km/h (35 km/h) 0 mm0 mm 20.7 °C 20.1 °C 19.4 °C 60000 m 0   0 min 71.5 W/m² 1020.7 hPa 8 Octas
14:54 21.8 °C 19 °C 84 % 22 km/h (33 km/h) 0 mm0 mm 20.7 °C 20.1 °C 19.4 °C 60000 m 0   0 min 98.9 W/m² 1020.7 hPa
14:48 21.8 °C 18.8 °C 83 % 24 km/h (34 km/h) 0 mm0 mm 20.7 °C 20 °C 19.3 °C 60000 m 0   0 min 103.1 W/m² 1020.8 hPa
14:42 22.1 °C 18.9 °C 82 % 24 km/h (33 km/h) 0 mm0 mm 20.6 °C 20 °C 19.4 °C 60000 m 0   0 min 132.4 W/m² 1020.7 hPa
14:36 22.2 °C 19 °C 82 % 24 km/h (34 km/h) 0 mm0 mm 20.6 °C 20 °C 19.3 °C 60000 m 0   0 min 121.9 W/m² 1020.7 hPa
14:30 22.6 °C 19 °C 80 % 25 km/h (36 km/h) 0 mm0 mm 20.6 °C 20 °C 19.4 °C 60000 m 0   1 min 164.1 W/m² 1020.6 hPa
14:24 22.7 °C 19.1 °C 80 % 25 km/h (36 km/h) 0 mm0 mm 20.6 °C 20.1 °C 19.4 °C 60000 m 0   3 min 220.2 W/m² 1020.6 hPa
14:18 22.5 °C 18.7 °C 79 % 23 km/h (34 km/h) 0 mm0 mm 20.5 °C 20.1 °C 19.4 °C 60000 m 0   1 min 174 W/m² 1020.5 hPa
14:12 22.6 °C 18.8 °C 79 % 23 km/h (35 km/h) 0 mm0 mm 20.5 °C 20 °C 19.4 °C 60000 m 0   2 min 186.5 W/m² 1020.5 hPa
14:06 22.5 °C 18.7 °C 79 % 25 km/h (35 km/h) 0 mm0 mm 20.5 °C 20 °C 19.4 °C 60000 m 0   1 min 176.2 W/m² 1020.6 hPa
14:00 22.7 °C 18.9 °C 79 % 24 km/h (37 km/h) 0 mm0 mm 20.5 °C 20 °C 19.4 °C 60000 m 0   1 min 151.9 W/m² 1020.6 hPa 8 Octas
13:54 22.4 °C 18.8 °C 80 % 24 km/h (37 km/h) 0 mm0 mm 20.5 °C 20 °C 19.4 °C 60000 m 0   1 min 128.2 W/m² 1020.6 hPa
13:48 22.3 °C 18.9 °C 81 % 24 km/h (35 km/h) 0 mm0 mm 20.4 °C 20 °C 19.4 °C 60000 m 0   0 min 104 W/m² 1020.6 hPa
13:42 22.6 °C 18.6 °C 78 % 24 km/h (36 km/h) 0 mm0 mm 20.4 °C 20 °C 19.3 °C 60000 m 0   0 min 155.5 W/m² 1020.6 hPa
13:36 23.7 °C 19.2 °C 76 % 22 km/h (36 km/h) 0 mm0 mm 20.3 °C 20 °C 19.4 °C 60000 m 0   4 min 217.6 W/m² 1020.5 hPa
13:30 23.1 °C 19.1 °C 78 % 23 km/h (39 km/h) 0 mm0 mm 20.3 °C 20 °C 19.3 °C 60000 m 0   4 min 194.5 W/m² 1020.6 hPa
13:24 22.9 °C 18.7 °C 77 % 25 km/h (39 km/h) 0 mm0 mm 20.4 °C 20 °C 19.4 °C 60000 m 0   5 min 207.8 W/m² 1020.6 hPa
13:18 23 °C 19 °C 78 % 23 km/h (38 km/h) 0 mm0 mm 20.2 °C 20 °C 19.3 °C 60000 m 0   3 min 198.9 W/m² 1020.4 hPa
13:12 23 °C 18.5 °C 76 % 20 km/h (32 km/h) 0 mm0 mm 20.3 °C 20 °C 19.4 °C 60000 m 0   3 min 180.5 W/m² 1020.4 hPa
13:06 22.7 °C 18.9 °C 79 % 21 km/h (31 km/h) 0 mm0 mm 20.2 °C 20 °C 19.3 °C 60000 m 0   0 min 163.5 W/m² 1020.4 hPa
13:00 22.6 °C 18.6 °C 78 % 23 km/h (33 km/h) 0 mm0 mm 20.2 °C 20 °C 19.4 °C 60000 m 0   1 min 172.6 W/m² 1020.5 hPa 8 Octas
12:54 22.9 °C 18.7 °C 77 % 23 km/h (35 km/h) 0 mm0 mm 20.2 °C 20 °C 19.3 °C 60000 m 0   2 min 175.2 W/m² 1020.4 hPa
12:48 23.2 °C 19.1 °C 78 % 22 km/h (35 km/h) 0 mm0 mm 20.2 °C 20 °C 19.4 °C 60000 m 0   5 min 225.4 W/m² 1020.3 hPa
12:42 23 °C 19 °C 78 % 22 km/h (31 km/h) 0 mm0 mm 20.2 °C 20 °C 19.3 °C 60000 m 0   5 min 245.9 W/m² 1020.2 hPa
12:36 22.3 °C 18.7 °C 80 % 24 km/h (37 km/h) 0 mm0 mm 20.2 °C 20 °C 19.4 °C 60000 m 0   3 min 180.8 W/m² 1020.3 hPa
12:30 22.2 °C 18.6 °C 80 % 26 km/h (37 km/h) 0 mm0 mm 20.2 °C 20 °C 19.3 °C 60000 m 0   4 min 193.3 W/m² 1020.3 hPa
12:24 22.7 °C 18.9 °C 79 % 23 km/h (37 km/h) 0 mm0 mm 20.1 °C 19.9 °C 19.3 °C 60000 m 0   5 min 193.7 W/m² 1020.2 hPa
12:18 22.6 °C 19 °C 80 % 21 km/h (31 km/h) 0 mm0 mm 20.1 °C 20 °C 19.3 °C 60000 m 0   6 min 246.9 W/m² 1020.2 hPa
12:12 22.4 °C 19.2 °C 82 % 18 km/h (30 km/h) 0 mm0 mm 20.1 °C 19.9 °C 19.3 °C 60000 m 0   6 min 264.1 W/m² 1020.2 hPa
12:06 21.9 °C 19.3 °C 85 % 17 km/h (27 km/h) 0 mm0 mm 20.1 °C 20 °C 19.4 °C 60000 m 0   2 min 145.7 W/m² 1020.2 hPa
12:00 21.6 °C 19.3 °C 87 % 17 km/h (26 km/h) 0 mm0 mm 20.1 °C 20 °C 19.3 °C 60000 m 0   4 min 176.1 W/m² 1020.1 hPa 8 Octas
11:54 21.2 °C 18.9 °C 87 % 18 km/h (28 km/h) 0 mm0 mm 20.1 °C 20 °C 19.3 °C 60000 m 0   0 min 101 W/m² 1020.1 hPa
11:48 21.1 °C 18.8 °C 87 % 17 km/h (28 km/h) 0 mm0 mm 20.1 °C 20 °C 19.3 °C 60000 m 0   4 min 181.3 W/m² 1020.1 hPa
11:42 21.2 °C 19.5 °C 90 % 18 km/h (31 km/h) 0 mm0 mm 20.1 °C 20 °C 19.3 °C 60000 m 0   5 min 176.9 W/m² 1020.1 hPa
11:36 21 °C 19.6 °C 92 % 15 km/h (28 km/h) 0 mm0 mm 20.1 °C 20 °C 19.3 °C 60000 m 1   5 min 193.2 W/m² 1020 hPa
11:30 20.4 °C 19.4 °C 94 % 11 km/h (19 km/h) 0 mm0 mm 20.1 °C 20 °C 19.4 °C 19150 m 1   3 min 148.5 W/m² 1020 hPa
11:24 20.1 °C 19.3 °C 95 % 14 km/h (28 km/h) 0 mm0 mm 20.1 °C 20 °C 19.3 °C 15490 m 1   0 min 98.1 W/m² 1020 hPa
11:18 20.1 °C 19.4 °C 96 % 19 km/h (29 km/h) 0 mm0 mm 20.1 °C 20 °C 19.4 °C 16640 m 1   0 min 90.7 W/m² 1020.1 hPa
11:12 19.7 °C 19 °C 96 % 19 km/h (35 km/h) 0 mm0 mm 20.1 °C 20 °C 19.3 °C 17420 m 1   0 min 59.7 W/m² 1020.1 hPa
11:06 19.8 °C 19.3 °C 97 % 17 km/h (29 km/h) 0 mm0 mm 20.1 °C 20 °C 19.3 °C 17320 m 2   0 min 51.8 W/m² 1020 hPa
11:00 19.7 °C 19.2 °C 97 % 20 km/h (29 km/h) 0 mm0.2 mm 20.1 °C 20 °C 19.3 °C 11280 m 2   0 min 58.1 W/m² 1020 hPa 8 Octas
10:54 19.6 °C 19.1 °C 97 % 19 km/h (34 km/h) 0.2 mm0 mm 20.1 °C 20 °C 19.3 °C 4370 m 2   0 min 50.5 W/m² 1019.9 hPa
10:48 19.6 °C 19.1 °C 97 % 16 km/h (23 km/h) 0 mm0 mm 20.1 °C 20 °C 19.3 °C 6010 m 2   0 min 34.1 W/m² 1019.9 hPa
10:42 19.5 °C 19 °C 97 % 16 km/h (28 km/h) 0 mm0 mm 20.1 °C 20 °C 19.3 °C 7950 m 2   0 min 29.7 W/m² 1019.9 hPa
10:36 19.5 °C 19 °C 97 % 15 km/h (26 km/h) 0 mm0 mm 20.1 °C 20 °C 19.3 °C 3950 m 2   0 min 37 W/m² 1019.8 hPa
10:30 19.6 °C 19.1 °C 97 % 13 km/h (26 km/h) 0 mm0 mm 20.1 °C 20 °C 19.3 °C 3370 m 2   0 min 48.7 W/m² 1019.8 hPa
10:24 19.5 °C 19 °C 97 % 12 km/h (20 km/h) 0 mm0 mm 20.1 °C 20.1 °C 19.3 °C 2320 m 2   0 min 29.2 W/m² 1019.8 hPa
10:18 19.5 °C 19 °C 97 % 15 km/h (24 km/h) 0 mm0 mm 20.1 °C 20 °C 19.3 °C 3380 m 1   0 min 31.7 W/m² 1019.8 hPa
10:12 19.5 °C 19 °C 97 % 14 km/h (22 km/h) 0 mm0 mm 20.1 °C 20.1 °C 19.3 °C 8280 m 1   0 min 35.3 W/m² 1019.8 hPa
10:06 19.5 °C 19 °C 97 % 13 km/h (22 km/h) 0 mm0 mm 20.1 °C 20.1 °C 19.3 °C 4310 m 0 min 40.9 W/m² 1019.8 hPa
10:00 19.5 °C 19 °C 97 % 13 km/h (21 km/h) 0 mm0 mm 20.1 °C 20.1 °C 19.4 °C 4370 m 0 min 24 W/m² 1019.8 hPa 8 Octas
09:54 19.5 °C 19 °C 97 % 12 km/h (21 km/h) 0 mm0 mm 20.1 °C 20.1 °C 19.3 °C 6130 m 1   0 min 26 W/m² 1019.8 hPa
09:48 19.5 °C 19 °C 97 % 12 km/h (21 km/h) 0 mm0 mm 20.1 °C 20 °C 19.3 °C 4900 m 0 min 27.6 W/m² 1019.8 hPa
09:42 19.4 °C 18.7 °C 96 % 13 km/h (21 km/h) 0 mm0 mm 20.1 °C 20 °C 19.3 °C 5280 m 1   0 min 20.2 W/m² 1019.8 hPa
09:36 19.4 °C 18.7 °C 96 % 13 km/h (21 km/h) 0 mm0 mm 20.1 °C 20.1 °C 19.3 °C 4200 m 1   0 min 25.3 W/m² 1019.8 hPa
09:30 19.4 °C 18.6 °C 95 % 13 km/h (22 km/h) 0 mm0 mm 20.1 °C 20.1 °C 19.3 °C 7510 m 0   0 min 18.6 W/m² 1019.9 hPa
09:24 19.3 °C 18.5 °C 95 % 13 km/h (22 km/h) 0 mm0 mm 20.1 °C 20.1 °C 19.3 °C 16600 m 0   0 min 18.8 W/m² 1019.9 hPa
09:18 19.3 °C 18.6 °C 96 % 12 km/h (19 km/h) 0 mm0 mm 20.1 °C 20.1 °C 19.3 °C 18300 m 0   0 min 23.4 W/m² 1019.8 hPa
09:12 19.2 °C 18.5 °C 96 % 14 km/h (20 km/h) 0 mm0 mm 20.1 °C 20.1 °C 19.3 °C 18730 m 0   0 min 22 W/m² 1019.7 hPa
09:06 19.1 °C 18.4 °C 96 % 13 km/h (21 km/h) 0 mm0 mm 20.1 °C 20.1 °C 19.3 °C 14960 m 0   0 min 21.3 W/m² 1019.7 hPa
09:00 19.1 °C 18.4 °C 96 % 13 km/h (21 km/h) 0 mm0 mm 20.2 °C 20.1 °C 19.3 °C 11450 m 0   0 min 15 W/m² 1019.7 hPa 8 Octas
08:54 19.1 °C 18.4 °C 96 % 12 km/h (19 km/h) 0 mm0 mm 20.1 °C 20.1 °C 19.3 °C 14190 m 0   0 min 13.8 W/m² 1019.7 hPa
08:48 19.1 °C 18.4 °C 96 % 13 km/h (21 km/h) 0 mm0 mm 20.2 °C 20.1 °C 19.3 °C 19240 m 0   0 min 19.9 W/m² 1019.8 hPa
08:42 19 °C 18.3 °C 96 % 13 km/h (21 km/h) 0 mm0 mm 20.2 °C 20.1 °C 19.3 °C 18600 m 0   0 min 18.1 W/m² 1019.7 hPa
08:36 18.9 °C 18.2 °C 96 % 10 km/h (17 km/h) 0 mm0 mm 20.1 °C 20.1 °C 19.3 °C 14620 m 0   0 min 16.5 W/m² 1019.6 hPa
08:30 18.9 °C 18.2 °C 96 % 11 km/h (19 km/h) 0 mm0 mm 20.2 °C 20.1 °C 19.3 °C 10570 m 0   0 min 7.2 W/m² 1019.6 hPa
08:24 18.9 °C 18.2 °C 96 % 13 km/h (19 km/h) 0 mm0 mm 20.2 °C 20.1 °C 19.3 °C 15650 m 0   0 min 6.9 W/m² 1019.6 hPa
08:18 18.9 °C 18.2 °C 96 % 13 km/h (21 km/h) 0 mm0 mm 20.2 °C 20.1 °C 19.3 °C 36210 m 0   0 min 0 W/m² 1019.6 hPa
08:12 18.8 °C 18.1 °C 96 % 12 km/h (21 km/h) 0 mm0 mm 20.2 °C 20.1 °C 19.3 °C 36570 m 0   0 min 0 W/m² 1019.6 hPa
08:06 18.8 °C 18.1 °C 96 % 12 km/h (20 km/h) 0 mm0 mm 20.2 °C 20.1 °C 19.3 °C 38970 m 0   0 min 0 W/m² 1019.6 hPa
08:00 18.8 °C 18.1 °C 96 % 12 km/h (18 km/h) 0 mm0 mm 20.2 °C 20.1 °C 19.3 °C 19990 m 0   0 min 0 W/m² 1019.6 hPa 8 Octas
07:54 18.8 °C 18.1 °C 96 % 12 km/h (20 km/h) 0 mm0 mm 20.2 °C 20.1 °C 19.3 °C 43200 m 0   0 min 0 W/m² 1019.6 hPa
07:48 18.7 °C 18 °C 96 % 11 km/h (20 km/h) 0 mm0 mm 20.2 °C 20.1 °C 19.3 °C 44000 m 0   0 min 0 W/m² 1019.5 hPa
07:42 18.7 °C 18 °C 96 % 12 km/h (20 km/h) 0 mm0 mm 20.2 °C 20.2 °C 19.3 °C 19860 m 0   0 min 0 W/m² 1019.5 hPa
07:36 18.7 °C 18 °C 96 % 12 km/h (20 km/h) 0 mm0 mm 20.2 °C 20.2 °C 19.3 °C 19620 m 0   0 min 0 W/m² 1019.4 hPa
07:30 18.6 °C 18.1 °C 97 % 10 km/h (17 km/h) 0 mm0 mm 20.2 °C 20.2 °C 19.3 °C 18940 m 0   0 min 0 W/m² 1019.5 hPa
07:24 18.6 °C 18.1 °C 97 % 9 km/h (16 km/h) 0 mm0 mm 20.3 °C 20.2 °C 19.3 °C 17430 m 0   0 min 0 W/m² 1019.4 hPa
07:18 18.6 °C 18.1 °C 97 % 9 km/h (16 km/h) 0 mm0 mm 20.2 °C 20.2 °C 19.3 °C 14990 m 0   0 min 0 W/m² 1019.5 hPa
07:12 18.6 °C 17.9 °C 96 % 11 km/h (16 km/h) 0 mm0 mm 20.3 °C 20.2 °C 19.3 °C 13080 m 0   0 min 0 W/m² 1019.4 hPa
07:06 18.6 °C 17.9 °C 96 % 12 km/h (18 km/h) 0 mm0 mm 20.3 °C 20.2 °C 19.3 °C 11950 m 0   0 min 0 W/m² 1019.4 hPa
07:00 18.6 °C 17.8 °C 95 % 12 km/h (18 km/h) 0 mm0 mm 20.3 °C 20.2 °C 19.3 °C 9370 m 0   0 min 0 W/m² 1019.5 hPa 8 Octas
06:54 18.7 °C 17.9 °C 95 % 12 km/h (21 km/h) 0 mm0 mm 20.3 °C 20.2 °C 19.3 °C 10180 m 0   0 min 0 W/m² 1019.6 hPa
06:48 18.7 °C 17.7 °C 94 % 12 km/h (21 km/h) 0 mm0 mm 20.3 °C 20.2 °C 19.3 °C 17710 m 0   0 min 0 W/m² 1019.7 hPa
06:42 18.7 °C 17.7 °C 94 % 10 km/h (15 km/h) 0 mm0 mm 20.4 °C 20.2 °C 19.3 °C 51400 m 0   0 min 0 W/m² 1019.7 hPa
06:36 18.7 °C 17.5 °C 93 % 9 km/h (14 km/h) 0 mm0 mm 20.3 °C 20.2 °C 19.3 °C 55890 m 0   0 min 0 W/m² 1019.7 hPa
06:30 18.7 °C 17.5 °C 93 % 9 km/h (15 km/h) 0 mm0 mm 20.3 °C 20.2 °C 19.3 °C 60000 m 0   0 min 0 W/m² 1019.7 hPa
06:24 18.7 °C 17.5 °C 93 % 10 km/h (17 km/h) 0 mm0 mm 20.4 °C 20.2 °C 19.3 °C 59930 m 0   0 min 0 W/m² 1019.7 hPa
06:18 18.7 °C 17.4 °C 92 % 10 km/h (17 km/h) 0 mm0 mm 20.4 °C 20.2 °C 19.3 °C 60000 m 0   0 min 0 W/m² 1019.8 hPa
06:12 18.7 °C 17.4 °C 92 % 10 km/h (17 km/h) 0 mm0 mm 20.4 °C 20.2 °C 19.3 °C 60000 m 0   0 min 0 W/m² 1019.8 hPa
06:06 18.7 °C 17.4 °C 92 % 10 km/h (15 km/h) 0 mm0 mm 20.4 °C 20.2 °C 19.3 °C 60000 m 0   0 min 0 W/m² 1019.9 hPa
06:00 18.7 °C 17.4 °C 92 % 9 km/h (14 km/h) 0 mm0 mm 20.4 °C 20.2 °C 19.3 °C 60000 m 0   0 min 0 W/m² 1019.9 hPa 8 Octas
05:54 18.7 °C 17.4 °C 92 % 9 km/h (15 km/h) 0 mm0 mm 20.4 °C 20.3 °C 19.3 °C 60000 m 0   0 min 0 W/m² 1020 hPa
05:48 18.7 °C 17.4 °C 92 % 8 km/h (15 km/h) 0 mm0 mm 20.4 °C 20.3 °C 19.3 °C 60000 m 0   0 min 0 W/m² 1020 hPa
05:42 18.7 °C 17.4 °C 92 % 9 km/h (15 km/h) 0 mm0 mm 20.4 °C 20.3 °C 19.3 °C 60000 m 0   0 min 0 W/m² 1019.9 hPa
05:36 18.6 °C 17.3 °C 92 % 9 km/h (13 km/h) 0 mm0 mm 20.4 °C 20.3 °C 19.3 °C 60000 m 0   0 min 0 W/m² 1019.9 hPa
05:30 18.6 °C 17.3 °C 92 % 8 km/h (14 km/h) 0 mm0 mm 20.4 °C 20.3 °C 19.3 °C 60000 m 0   0 min 0 W/m² 1020 hPa
05:24 18.6 °C 17.3 °C 92 % 9 km/h (14 km/h) 0 mm0 mm 20.5 °C 20.3 °C 19.3 °C 60000 m 0   0 min 0 W/m² 1020 hPa
05:18 18.6 °C 17.3 °C 92 % 10 km/h (14 km/h) 0 mm0 mm 20.5 °C 20.3 °C 19.3 °C 60000 m 0   0 min 0 W/m² 1020 hPa
05:12 18.6 °C 17.3 °C 92 % 10 km/h (14 km/h) 0 mm0 mm 20.5 °C 20.3 °C 19.3 °C 60000 m 0   0 min 0 W/m² 1020.1 hPa
05:06 18.6 °C 17.3 °C 92 % 9 km/h (13 km/h) 0 mm0 mm 20.5 °C 20.3 °C 19.3 °C 60000 m 0   0 min 0 W/m² 1020.2 hPa
05:00 18.6 °C 17.1 °C 91 % 8 km/h (12 km/h) 0 mm0 mm 20.5 °C 20.3 °C 19.3 °C 60000 m 0   0 min 0 W/m² 1020.1 hPa 8 Octas
04:54 18.6 °C 17.1 °C 91 % 9 km/h (12 km/h) 0 mm0 mm 20.5 °C 20.3 °C 19.3 °C 60000 m 0   0 min 0 W/m² 1020.2 hPa
04:48 18.7 °C 17.2 °C 91 % 9 km/h (12 km/h) 0 mm0 mm 20.5 °C 20.3 °C 19.3 °C 60000 m 0   0 min 0 W/m² 1020.2 hPa
04:42 18.7 °C 17 °C 90 % 9 km/h (13 km/h) 0 mm0 mm 20.5 °C 20.4 °C 19.3 °C 60000 m 0   0 min 0 W/m² 1020.3 hPa
04:36 18.7 °C 17 °C 90 % 7 km/h (13 km/h) 0 mm0 mm 20.5 °C 20.3 °C 19.3 °C 60000 m 0   0 min 0 W/m² 1020.3 hPa
04:30 18.7 °C 17 °C 90 % 6 km/h (11 km/h) 0 mm0 mm 20.5 °C 20.3 °C 19.3 °C 60000 m 0   0 min 0 W/m² 1020.3 hPa
04:24 18.7 °C 16.8 °C 89 % 8 km/h (11 km/h) 0 mm0 mm 20.6 °C 20.3 °C 19.2 °C 60000 m 0   0 min 0 W/m² 1020.3 hPa
04:18 18.7 °C 16.8 °C 89 % 8 km/h (12 km/h) 0 mm0 mm 20.5 °C 20.3 °C 19.2 °C 60000 m 0   0 min 0 W/m² 1020.3 hPa
04:12 18.8 °C 16.8 °C 88 % 9 km/h (14 km/h) 0 mm0 mm 20.6 °C 20.4 °C 19.3 °C 60000 m 0   0 min 0 W/m² 1020.3 hPa
04:06 18.8 °C 16.8 °C 88 % 10 km/h (15 km/h) 0 mm0 mm 20.6 °C 20.4 °C 19.2 °C 60000 m 0   0 min 0 W/m² 1020.3 hPa
04:00 18.8 °C 16.8 °C 88 % 9 km/h (14 km/h) 0 mm0 mm 20.6 °C 20.4 °C 19.2 °C 60000 m 0   0 min 0 W/m² 1020.3 hPa 8 Octas
03:54 18.8 °C 16.8 °C 88 % 10 km/h (15 km/h) 0 mm0 mm 20.6 °C 20.4 °C 19.2 °C 60000 m 0   0 min 0 W/m² 1020.3 hPa
03:48 18.8 °C 16.8 °C 88 % 10 km/h (16 km/h) 0 mm0 mm 20.6 °C 20.3 °C 19.2 °C 60000 m 0   0 min 0 W/m² 1020.4 hPa
03:42 18.7 °C 16.8 °C 89 % 11 km/h (19 km/h) 0 mm0 mm 20.6 °C 20.4 °C 19.2 °C 60000 m 0   0 min 0 W/m² 1020.4 hPa
03:36 18.8 °C 16.9 °C 89 % 13 km/h (21 km/h) 0 mm0 mm 20.7 °C 20.4 °C 19.3 °C 60000 m 0   0 min 0 W/m² 1020.4 hPa
03:30 18.8 °C 16.9 °C 89 % 12 km/h (20 km/h) 0 mm0 mm 20.6 °C 20.4 °C 19.2 °C 60000 m 0   0 min 0 W/m² 1020.5 hPa
03:24 18.8 °C 16.8 °C 88 % 11 km/h (20 km/h) 0 mm0 mm 20.7 °C 20.4 °C 19.2 °C 60000 m 0   0 min 0 W/m² 1020.5 hPa
03:18 18.8 °C 16.9 °C 89 % 11 km/h (17 km/h) 0 mm0 mm 20.7 °C 20.4 °C 19.3 °C 60000 m 0   0 min 0 W/m² 1020.6 hPa
03:12 18.8 °C 17.1 °C 90 % 11 km/h (17 km/h) 0 mm0 mm 20.7 °C 20.4 °C 19.2 °C 60000 m 0   0 min 0 W/m² 1020.6 hPa
03:06 18.8 °C 17.1 °C 90 % 10 km/h (17 km/h) 0 mm0 mm 20.7 °C 20.4 °C 19.2 °C 60000 m 0   0 min 0 W/m² 1020.7 hPa
03:00 18.8 °C 17.1 °C 90 % 12 km/h (20 km/h) 0 mm0 mm 20.7 °C 20.4 °C 19.2 °C 60000 m 0   0 min 0 W/m² 1020.8 hPa 8 Octas
02:54 18.8 °C 17.3 °C 91 % 14 km/h (20 km/h) 0 mm0 mm 20.7 °C 20.4 °C 19.2 °C 60000 m 0   0 min 0 W/m² 1020.8 hPa
02:48 18.8 °C 17.3 °C 91 % 14 km/h (22 km/h) 0 mm0 mm 20.7 °C 20.4 °C 19.2 °C 60000 m 0   0 min 0 W/m² 1020.9 hPa
02:42 18.8 °C 17.5 °C 92 % 13 km/h (22 km/h) 0 mm0 mm 20.7 °C 20.4 °C 19.2 °C 60000 m 0   0 min 0 W/m² 1021 hPa
02:36 18.8 °C 17.5 °C 92 % 13 km/h (21 km/h) 0 mm0 mm 20.7 °C 20.4 °C 19.2 °C 60000 m 0   0 min 0 W/m² 1021.1 hPa
02:30 18.8 °C 17.5 °C 92 % 12 km/h (20 km/h) 0 mm0 mm 20.7 °C 20.4 °C 19.2 °C 60000 m 0   0 min 0 W/m² 1021.2 hPa
02:24 18.8 °C 17.6 °C 93 % 13 km/h (20 km/h) 0 mm0 mm 20.8 °C 20.4 °C 19.2 °C 60000 m 0   0 min 0 W/m² 1021.3 hPa
02:18 18.8 °C 17.6 °C 93 % 11 km/h (20 km/h) 0 mm0 mm 20.8 °C 20.4 °C 19.2 °C 60000 m 0   0 min 0 W/m² 1021.4 hPa
02:12 18.8 °C 17.8 °C 94 % 11 km/h (19 km/h) 0 mm0 mm 20.8 °C 20.4 °C 19.2 °C 60000 m 0   0 min 0 W/m² 1021.4 hPa
02:06 18.8 °C 17.8 °C 94 % 12 km/h (19 km/h) 0 mm0 mm 20.8 °C 20.4 °C 19.2 °C 60000 m 0   0 min 0 W/m² 1021.5 hPa
02:00 18.7 °C 17.9 °C 95 % 13 km/h (22 km/h) 0 mm0 mm 20.8 °C 20.4 °C 19.2 °C 58750 m 0   0 min 0 W/m² 1021.5 hPa 8 Octas
01:54 18.8 °C 18 °C 95 % 13 km/h (22 km/h) 0 mm0 mm 20.8 °C 20.4 °C 19.2 °C 18270 m 0   0 min 0 W/m² 1021.6 hPa
01:48 18.8 °C 18 °C 95 % 12 km/h (21 km/h) 0 mm0 mm 20.8 °C 20.5 °C 19.2 °C 18270 m 0   0 min 0 W/m² 1021.6 hPa
01:42 18.8 °C 18 °C 95 % 11 km/h (20 km/h) 0 mm0 mm 20.8 °C 20.5 °C 19.2 °C 49660 m 0   0 min 0 W/m² 1021.7 hPa
01:36 18.8 °C 18 °C 95 % 11 km/h (16 km/h) 0 mm0 mm 20.9 °C 20.5 °C 19.2 °C 19830 m 0   0 min 0 W/m² 1021.7 hPa
01:30 18.8 °C 18 °C 95 % 11 km/h (16 km/h) 0 mm0 mm 20.8 °C 20.4 °C 19.2 °C 13230 m 0   0 min 0 W/m² 1021.7 hPa
01:24 18.8 °C 18 °C 95 % 12 km/h (19 km/h) 0 mm0 mm 20.9 °C 20.4 °C 19.2 °C 11990 m 0   0 min 0 W/m² 1021.7 hPa
01:18 18.8 °C 18 °C 95 % 12 km/h (19 km/h) 0 mm0 mm 20.9 °C 20.5 °C 19.2 °C 18760 m 0   0 min 0 W/m² 1021.8 hPa
01:12 18.8 °C 17.8 °C 94 % 11 km/h (17 km/h) 0 mm0 mm 20.9 °C 20.5 °C 19.2 °C 48580 m 0   0 min 0 W/m² 1021.8 hPa
01:06 18.8 °C 17.8 °C 94 % 11 km/h (17 km/h) 0 mm0 mm 20.9 °C 20.5 °C 19.2 °C 53300 m 0   0 min 0 W/m² 1021.8 hPa
01:00 18.8 °C 17.8 °C 94 % 11 km/h (17 km/h) 0 mm0 mm 20.9 °C 20.5 °C 19.2 °C 52120 m 0   0 min 0 W/m² 1021.9 hPa 8 Octas
00:54 18.8 °C 17.8 °C 94 % 11 km/h (17 km/h) 0 mm0 mm 20.9 °C 20.5 °C 19.2 °C 52480 m 0   0 min 0 W/m² 1021.9 hPa
00:48 18.9 °C 17.9 °C 94 % 12 km/h (20 km/h) 0 mm0 mm 20.9 °C 20.5 °C 19.1 °C 50790 m 0   0 min 0 W/m² 1021.9 hPa
00:42 18.9 °C 17.9 °C 94 % 12 km/h (17 km/h) 0 mm0 mm 20.9 °C 20.5 °C 19.2 °C 54100 m 0   0 min 0 W/m² 1021.9 hPa
00:36 18.9 °C 17.9 °C 94 % 11 km/h (17 km/h) 0 mm0 mm 21 °C 20.5 °C 19.2 °C 58580 m 0   0 min 0 W/m² 1022 hPa
00:30 18.8 °C 17.8 °C 94 % 10 km/h (15 km/h) 0 mm0 mm 21 °C 20.5 °C 19.2 °C 59630 m 0   0 min 0 W/m² 1022 hPa
00:24 18.8 °C 17.8 °C 94 % 10 km/h (14 km/h) 0 mm0 mm 21 °C 20.5 °C 19.2 °C 60000 m 0   0 min 0 W/m² 1022 hPa
00:18 18.8 °C 17.8 °C 94 % 10 km/h (15 km/h) 0 mm0 mm 21 °C 20.5 °C 19.2 °C 60000 m 0   0 min 0 W/m² 1022.1 hPa
00:12 18.8 °C 17.8 °C 94 % 10 km/h (15 km/h) 0 mm0 mm 21 °C 20.5 °C 19.2 °C 60000 m 0   0 min 0 W/m² 1022.2 hPa
00:06 18.8 °C 17.8 °C 94 % 11 km/h (15 km/h) 0 mm0 mm 21 °C 20.5 °C 19.2 °C 56230 m 0   0 min 0 W/m² 1022.2 hPa
00:00 18.9 °C 17.9 °C 94 % 10 km/h (14 km/h) 0 mm0 mm 21 °C 20.5 °C 19.2 °C 51970 m 0   0 min 0 W/m² 1022.2 hPa 8 Octas

Données via Météo-France

Relevés météo à Quimper

Cette page rassemble les observations de la station de Quimper : température, humidité, vent, précipitations et pression atmosphérique. Les graphiques facilitent le suivi de la journée, tandis que le tableau donne accès aux mesures horaires et infra-horaires disponibles.

Pour replacer ces mesures dans leur contexte, consultez la climatologie de Quimper ainsi que ses normales et records. Retrouvez aussi la carte des observations météo en temps réel.